Radiance Of The Seas — C6SE7 — position and weather

sailwx.info

Track history (hours):
 
Tides and Currents Weather Stations Pressure Air Temp Water Temp Dewpoint Dewpoint Depression Visibility Wind Speed Wind Dir Waves Ship Positions

Radiance Of The Seas

Operator: Royal Caribbean Cruises Ltd

Last reported at 2016-Jul-02 06:33 UTC. Time now 2016-Jul-02 07:25 UTC.
Position N 49°37' W 124°37'.

Type: Passenger vessel. MMSI: 311319000.

Date/timePositionNaut miles runAvg speedWind from/ knotsBaromVisibWave heightAir tempDewpointWater temp
2016-Jul-02 06:33N 49°37' W 124°37'2110.5
2016-Jul-02 04:33N 49°24' W 124°12'1010.5
2016-Jul-02 03:33N 49°22' W 123°57'1110.7
2016-Jul-02 02:33N 49°21' W 123°40'1110.9
2016-Jul-02 01:33N 49°19' W 123°24'1211.6
2016-Jul-02 00:34N 49°18' W 123°06'0 0.5
2016-Jul-01 23:31N 49°17' W 123°07'0 0.0
2016-Jul-01 22:31N 49°17' W 123°07'0 0.0
2016-Jul-01 21:31N 49°17' W 123°07'0 0.0
2016-Jul-01 20:31N 49°17' W 123°07'0 0.0
2016-Jul-01 19:31N 49°17' W 123°07'0 0.0
2016-Jul-01 18:31N 49°17' W 123°07'0 0.0
2016-Jul-01 17:31N 49°17' W 123°07'0 0.0
2016-Jul-01 16:31N 49°17' W 123°07'0 0.0
2016-Jul-01 15:31N 49°17' W 123°07'0 0.0
2016-Jul-01 14:31N 49°17' W 123°07'1 1.0
2016-Jul-01 13:33N 49°18' W 123°07'1010.4
2016-Jul-01 12:33N 49°19' W 123°23'1111.3
2016-Jul-01 11:33N 49°20' W 123°40'1111.5
2016-Jul-01 10:33N 49°22' W 123°57'1111.5
2016-Jul-01 09:33N 49°24' W 124°15'1111.4
2016-Jul-01 08:33N 49°30' W 124°30'1111.5
2016-Jul-01 07:33N 49°39' W 124°41'1111.3
2016-Jul-01 06:33N 49°47' W 124°53'1111.4
2016-Jul-01 05:33N 49°55' W 125°06'1313.1
2016-Jul-01 04:33N 50°06' W 125°17'1514.5
2016-Jul-01 03:32N 50°20' W 125°25'6015.2
2016-Jun-30 23:33N 50°41' W 126°54'1817.7
2016-Jun-30 22:33N 50°48' W 127°20'1716.8
2016-Jun-30 21:33N 50°56' W 127°43'1514.5
2016-Jun-30 20:33N 51°03' W 128°03'  
2016-Jun-23 05:34N 58°19' W 135°53'  
Track history (hours):
 
Tides and Currents Weather Stations Pressure Air Temp Water Temp Dewpoint Dewpoint Depression Visibility Wind Speed Wind Dir Waves Ship Positions

Radiance Of The Seas

Operator: Royal Caribbean Cruises Ltd

Last reported at 2016-Jul-02 06:33 UTC. Time now 2016-Jul-02 07:25 UTC.
Position N 49°37' W 124°37'.

Type: Passenger vessel. MMSI: 311319000.

Date/timePositionNaut miles runAvg speedWind from/ knotsBaromVisibWave heightAir tempDewpointWater temp
2016-Jul-02 06:33N 49°37' W 124°37'2110.5
2016-Jul-02 04:33N 49°24' W 124°12'1010.5
2016-Jul-02 03:33N 49°22' W 123°57'1110.7
2016-Jul-02 02:33N 49°21' W 123°40'1110.9
2016-Jul-02 01:33N 49°19' W 123°24'1211.6
2016-Jul-02 00:34N 49°18' W 123°06'0 0.5
2016-Jul-01 23:31N 49°17' W 123°07'0 0.0
2016-Jul-01 22:31N 49°17' W 123°07'0 0.0
2016-Jul-01 21:31N 49°17' W 123°07'0 0.0
2016-Jul-01 20:31N 49°17' W 123°07'0 0.0
2016-Jul-01 19:31N 49°17' W 123°07'0 0.0
2016-Jul-01 18:31N 49°17' W 123°07'0 0.0
2016-Jul-01 17:31N 49°17' W 123°07'0 0.0
2016-Jul-01 16:31N 49°17' W 123°07'0 0.0
2016-Jul-01 15:31N 49°17' W 123°07'0 0.0
2016-Jul-01 14:31N 49°17' W 123°07'1 1.0
2016-Jul-01 13:33N 49°18' W 123°07'1010.4
2016-Jul-01 12:33N 49°19' W 123°23'1111.3
2016-Jul-01 11:33N 49°20' W 123°40'1111.5
2016-Jul-01 10:33N 49°22' W 123°57'1111.5
2016-Jul-01 09:33N 49°24' W 124°15'1111.4
2016-Jul-01 08:33N 49°30' W 124°30'1111.5
2016-Jul-01 07:33N 49°39' W 124°41'1111.3
2016-Jul-01 06:33N 49°47' W 124°53'1111.4
2016-Jul-01 05:33N 49°55' W 125°06'1313.1
2016-Jul-01 04:33N 50°06' W 125°17'1514.5
2016-Jul-01 03:32N 50°20' W 125°25'6015.2
2016-Jun-30 23:33N 50°41' W 126°54'1817.7
2016-Jun-30 22:33N 50°48' W 127°20'1716.8
2016-Jun-30 21:33N 50°56' W 127°43'1514.5
2016-Jun-30 20:33N 51°03' W 128°03'  
2016-Jun-23 05:34N 58°19' W 135°53'  

Dump ship's entire track history